Sao Leopoldo, Brazil
Current Conditions -  °F | °C
As of 7:00 AM on Sunday 26 Oct 2014 (Local Time) from SBCO Reporting Station
Overcast Overcast  
Wind Chill: 68°   Ceiling: 600
Heat Index: 68°   Visibility: 5mi
Dew Point: 66°   Wind: 10mph
Humidity: 94%   Direction: 120°ESE
Pressure: 29.94"   Gusts: NA
Location:  29.78°S, 51.15°W
Report Text: SBCO 260900Z 12009KT 8000 OVC006 20/19 Q1014
Loading
Personal Weather Stations






























Interactive Weather Map
Tropical Storm Tracking
New forecast layout! Learn more

10-Day Weather Forecast

Advertisements
Track Severe Weather on mobile